Time;durP1;ratioP1;P1;durP2;ratioP2;P2;SDS_P1;SDS_P2;PMS_P1;PMS_P2;Temp;Humidity;BMP_temperature;BMP_pressure;BME280_temperature;BME280_humidity;BME280_pressure;Samples;Min_cycle;Max_cycle;Signal;HPM_P1;HPM_P2
2020/12/17 00:02:00;;;;;;;;;;;;;;;8.48;95.52;98979.81;5132995;27;19930;-81
2020/12/17 00:04:26;;;;;;;;;;;;;;;8.50;95.33;98975.47;5115457;27;19929;-80
2020/12/17 00:06:51;;;;;;;;;;;;;;;8.55;95.47;98978.78;5114677;27;19920;-78
2020/12/17 00:09:16;;;;;;;;;;;;;;;8.52;95.65;98976.28;5133563;27;19919;-79
2020/12/17 00:11:42;;;;;;;;;;;;;;;8.55;95.57;98979.66;5133191;27;19930;-78
2020/12/17 00:14:09;;;;;;;;;;;;;;;8.56;95.85;98983.03;5115029;27;20348;-78
2020/12/17 00:16:35;;;;;;;;;;;;;;;8.56;95.81;98980.47;5115626;27;20321;-78
2020/12/17 00:19:00;;;;;;;;;;;;;;;8.60;95.16;98971.84;5133042;27;20018;-79
2020/12/17 00:21:25;;;;;;;;;;;;;;;8.64;95.86;98973.41;5133467;27;19968;-78
2020/12/17 00:23:50;;;;;;;;;;;;;;;8.66;95.20;98975.97;5132825;27;20448;-78
2020/12/17 00:26:16;;;;;;;;;;;;;;;8.62;95.29;98970.06;5114307;27;19920;-78
2020/12/17 00:28:41;;;;;;;;;;;;;;;8.73;95.49;98982.63;5097497;27;20328;-78
2020/12/17 00:31:06;;;;;;;;;;;;;;;8.63;95.62;98973.47;5133581;27;19911;-78
2020/12/17 00:33:32;;;;;;;;;;;;;;;8.68;95.26;98964.75;5114954;27;19919;-78
2020/12/17 00:35:57;;;;;;;;;;;;;;;8.64;95.56;98967.44;5132558;27;20017;-78
2020/12/17 00:38:22;;;;;;;;;;;;;;;8.63;94.78;98963.22;5113867;27;19928;-79
2020/12/17 00:40:48;;;;;;;;;;;;;;;8.66;95.55;98971.66;5114890;27;20391;-78
2020/12/17 00:43:13;;;;;;;;;;;;;;;8.59;94.62;98960.69;5115013;27;19947;-78
2020/12/17 00:45:38;;;;;;;;;;;;;;;8.67;94.88;98963.09;5113030;27;19923;-79
2020/12/17 00:48:04;;;;;;;;;;;;;;;8.83;95.22;98957.59;5115146;27;19923;-78
2020/12/17 00:50:29;;;;;;;;;;;;;;;8.70;95.34;98952.75;5114339;27;19919;-78
2020/12/17 00:52:54;;;;;;;;;;;;;;;8.70;95.41;98957.88;5114285;27;20659;-78
2020/12/17 00:55:20;;;;;;;;;;;;;;;8.69;95.28;98961.34;5132081;27;19930;-78
2020/12/17 00:57:45;;;;;;;;;;;;;;;8.72;94.65;98961.25;5132903;27;20368;-79
2020/12/17 01:00:11;;;;;;;;;;;;;;;8.65;95.04;98957.16;5131715;27;19946;-78
2020/12/17 01:02:36;;;;;;;;;;;;;;;8.67;94.74;98952.81;5113438;27;20403;-79
2020/12/17 01:05:01;;;;;;;;;;;;;;;8.75;95.07;98956.03;5113687;27;19919;-78
2020/12/17 01:07:27;;;;;;;;;;;;;;;8.72;95.04;98960.41;5113691;27;19919;-78
2020/12/17 01:09:52;;;;;;;;;;;;;;;8.66;94.87;98961.38;5113377;27;19962;-79
2020/12/17 01:12:17;;;;;;;;;;;;;;;8.76;95.41;98957.72;5096004;27;19926;-79
2020/12/17 01:14:43;;;;;;;;;;;;;;;8.71;94.87;98957.00;5113709;27;19915;-79
2020/12/17 01:17:09;;;;;;;;;;;;;;;8.68;95.01;98957.06;5095340;27;20334;-78
2020/12/17 01:19:34;;;;;;;;;;;;;;;8.76;95.42;98946.63;5113967;27;19911;-78
2020/12/17 01:21:59;;;;;;;;;;;;;;;8.75;94.95;98943.19;5113103;27;19964;-78
2020/12/17 01:24:25;;;;;;;;;;;;;;;8.81;94.63;98943.94;5112719;27;19912;-78
2020/12/17 01:26:54;;;;;;;;;;;;;;;8.82;94.74;98936.16;5129860;27;19971;-78
2020/12/17 01:29:19;;;;;;;;;;;;;;;8.88;94.41;98930.06;5113186;27;20386;-78
2020/12/17 01:31:45;;;;;;;;;;;;;;;8.83;94.84;98948.16;5112337;27;19961;-79
2020/12/17 01:34:10;;;;;;;;;;;;;;;8.90;94.54;98949.66;5131467;27;20284;-78
2020/12/17 01:36:35;;;;;;;;;;;;;;;8.94;94.61;98947.84;5130544;27;19915;-79
2020/12/17 01:39:00;;;;;;;;;;;;;;;8.83;94.24;98942.19;5131597;27;19929;-79
2020/12/17 01:41:26;;;;;;;;;;;;;;;8.82;94.45;98946.44;5096029;27;20949;-78
2020/12/17 01:43:51;;;;;;;;;;;;;;;8.87;94.49;98956.59;5131638;27;19919;-78
2020/12/17 01:46:16;;;;;;;;;;;;;;;8.83;94.94;98955.84;5131392;27;19923;-78
2020/12/17 01:48:42;;;;;;;;;;;;;;;8.86;94.57;98960.06;5113784;27;19961;-78
2020/12/17 01:51:08;;;;;;;;;;;;;;;8.82;94.49;98958.44;5123912;27;19919;-79
2020/12/17 01:53:37;;;;;;;;;;;;;;;8.83;94.84;98955.00;5116660;27;19954;-79
2020/12/17 01:56:03;;;;;;;;;;;;;;;8.83;94.68;98957.59;5117463;27;19916;-80
2020/12/17 01:58:31;;;;;;;;;;;;;;;8.81;94.61;98967.03;5114294;27;19922;-79
2020/12/17 02:00:56;;;;;;;;;;;;;;;8.87;94.20;98959.16;5133752;27;20025;-79
2020/12/17 02:03:21;;;;;;;;;;;;;;;8.84;94.42;98959.25;5132504;27;19955;-79
2020/12/17 02:05:50;;;;;;;;;;;;;;;8.76;93.89;98965.44;5113732;27;19923;-80
2020/12/17 02:08:18;;;;;;;;;;;;;;;8.90;94.20;98953.97;5131959;27;19927;-79
2020/12/17 02:10:44;;;;;;;;;;;;;;;8.72;94.28;98950.97;5114757;27;19927;-79
2020/12/17 02:13:10;;;;;;;;;;;;;;;8.84;94.29;98948.97;5114222;27;19916;-79
2020/12/17 02:15:36;;;;;;;;;;;;;;;8.81;93.57;98939.63;5114323;27;19916;-79
2020/12/17 02:18:01;;;;;;;;;;;;;;;8.85;94.12;98945.50;5132139;27;19918;-79
2020/12/17 02:20:27;;;;;;;;;;;;;;;8.87;93.77;98954.03;5113709;27;19915;-79
2020/12/17 02:22:52;;;;;;;;;;;;;;;8.90;93.88;98941.13;5133230;27;19918;-79
2020/12/17 02:25:18;;;;;;;;;;;;;;;8.85;93.64;98945.50;5114980;27;19919;-79
2020/12/17 02:27:44;;;;;;;;;;;;;;;8.85;93.88;98941.25;5115173;28;19983;-79
2020/12/17 02:30:10;;;;;;;;;;;;;;;8.79;93.92;98939.66;5132828;27;19927;-79
2020/12/17 02:32:36;;;;;;;;;;;;;;;8.91;93.55;98946.19;5133179;27;19916;-79
2020/12/17 02:35:02;;;;;;;;;;;;;;;8.75;94.05;98945.75;5133115;27;19918;-79
2020/12/17 02:37:27;;;;;;;;;;;;;;;8.81;93.97;98946.50;5133099;27;19955;-79
2020/12/17 02:39:53;;;;;;;;;;;;;;;8.72;94.01;98942.44;5133805;27;19915;-79
2020/12/17 02:42:18;;;;;;;;;;;;;;;8.72;94.08;98945.84;5114580;28;19919;-79
2020/12/17 02:44:43;;;;;;;;;;;;;;;8.69;94.27;98945.94;5114561;28;19916;-79
2020/12/17 02:47:09;;;;;;;;;;;;;;;8.59;94.06;98941.91;5114954;28;20380;-80
2020/12/17 02:49:35;;;;;;;;;;;;;;;8.69;94.12;98939.94;5113909;28;19976;-79
2020/12/17 02:52:01;;;;;;;;;;;;;;;8.58;93.83;98947.91;5113806;28;19919;-79
2020/12/17 02:54:26;;;;;;;;;;;;;;;8.60;94.40;98941.03;5130940;28;19919;-79
2020/12/17 02:56:51;;;;;;;;;;;;;;;8.51;94.45;98939.53;5131943;28;20931;-79
2020/12/17 02:59:17;;;;;;;;;;;;;;;8.55;94.34;98950.53;5131140;28;20324;-79
2020/12/17 03:01:42;;;;;;;;;;;;;;;8.57;94.28;98951.34;5131149;28;19919;-79
2020/12/17 03:04:07;;;;;;;;;;;;;;;8.57;94.31;98951.34;5113775;28;19915;-80
2020/12/17 03:06:33;;;;;;;;;;;;;;;8.62;94.40;98958.94;5131342;28;19977;-80
2020/12/17 03:08:58;;;;;;;;;;;;;;;8.52;94.20;98960.91;5131928;28;19916;-79
2020/12/17 03:11:23;;;;;;;;;;;;;;;8.60;94.05;98966.69;5113397;28;19931;-79
2020/12/17 03:13:49;;;;;;;;;;;;;;;8.53;94.68;98970.28;5113164;28;19912;-79
2020/12/17 03:16:14;;;;;;;;;;;;;;;8.51;94.63;98962.63;5114082;28;19945;-79
2020/12/17 03:18:40;;;;;;;;;;;;;;;8.49;94.50;98959.25;5132043;28;19919;-79
2020/12/17 03:21:05;;;;;;;;;;;;;;;8.46;94.98;98949.06;5111522;28;19922;-79
2020/12/17 03:23:30;;;;;;;;;;;;;;;8.48;95.36;98952.41;5126774;28;19922;-79
2020/12/17 03:25:55;;;;;;;;;;;;;;;8.47;94.72;98949.91;5130761;28;19931;-79
2020/12/17 03:28:21;;;;;;;;;;;;;;;8.51;94.98;98947.22;5113340;28;19963;-79
2020/12/17 03:30:46;;;;;;;;;;;;;;;8.53;95.29;98949.72;5132818;28;19992;-79
2020/12/17 03:33:12;;;;;;;;;;;;;;;8.48;95.03;98941.31;5113891;27;19915;-79
2020/12/17 03:35:37;;;;;;;;;;;;;;;8.53;94.96;98939.47;5117326;27;19923;-79
2020/12/17 03:38:02;;;;;;;;;;;;;;;8.50;94.91;98937.00;5116836;27;19911;-79
2020/12/17 03:40:28;;;;;;;;;;;;;;;8.45;94.63;98934.53;5100161;27;19915;-79
2020/12/17 03:42:53;;;;;;;;;;;;;;;8.56;95.26;98935.13;5134508;27;19911;-79
2020/12/17 03:45:19;;;;;;;;;;;;;;;8.59;95.07;98929.06;5116798;27;20167;-78
2020/12/17 03:47:45;;;;;;;;;;;;;;;8.55;95.35;98917.19;5116164;27;19999;-78
2020/12/17 03:50:10;;;;;;;;;;;;;;;8.44;95.56;98914.91;5135470;27;19920;-79
2020/12/17 03:52:35;;;;;;;;;;;;;;;8.51;95.39;98931.00;5117003;27;20333;-79
2020/12/17 03:55:01;;;;;;;;;;;;;;;8.58;95.27;98928.22;5115894;27;20431;-79
2020/12/17 03:57:26;;;;;;;;;;;;;;;8.61;95.05;98926.47;5116185;27;19919;-79
2020/12/17 03:59:52;;;;;;;;;;;;;;;8.57;95.15;98933.38;5116685;27;19912;-80
2020/12/17 04:02:17;;;;;;;;;;;;;;;8.61;95.02;98939.28;5134835;27;19911;-79
2020/12/17 04:04:42;;;;;;;;;;;;;;;8.62;94.61;98939.28;5116129;27;19935;-79
2020/12/17 04:07:08;;;;;;;;;;;;;;;8.58;95.20;98932.53;5133297;27;20422;-78
2020/12/17 04:09:33;;;;;;;;;;;;;;;8.59;95.24;98921.34;5134011;27;20380;-79
2020/12/17 04:11:58;;;;;;;;;;;;;;;8.62;95.02;98918.72;5116766;27;19915;-79
2020/12/17 04:14:24;;;;;;;;;;;;;;;8.60;95.30;98925.63;5115784;27;19955;-79
2020/12/17 04:16:49;;;;;;;;;;;;;;;8.57;95.28;98925.69;5125908;27;19919;-79
2020/12/17 04:19:14;;;;;;;;;;;;;;;8.60;94.97;98920.50;5133437;27;19923;-78
2020/12/17 04:21:40;;;;;;;;;;;;;;;8.59;94.85;98921.34;5114809;27;19934;-79
2020/12/17 04:24:06;;;;;;;;;;;;;;;8.71;94.61;98918.50;5115697;27;19916;-79
2020/12/17 04:26:31;;;;;;;;;;;;;;;8.64;94.95;98916.94;5133537;27;20002;-79
2020/12/17 04:29:01;;;;;;;;;;;;;;;8.65;94.85;98921.22;5132807;27;20056;-79
2020/12/17 04:31:26;;;;;;;;;;;;;;;8.66;94.63;98920.31;5115918;27;19960;-79
2020/12/17 04:33:52;;;;;;;;;;;;;;;8.65;94.59;98912.69;5133411;27;19915;-77
2020/12/17 04:36:17;;;;;;;;;;;;;;;8.69;94.80;98921.97;5113339;27;20016;-80
2020/12/17 04:38:42;;;;;;;;;;;;;;;8.68;95.09;98923.69;5114222;27;19919;-79
2020/12/17 04:41:08;;;;;;;;;;;;;;;8.66;94.68;98922.03;5133770;27;19930;-79
2020/12/17 04:43:33;;;;;;;;;;;;;;;8.72;94.49;98929.59;5132614;27;20480;-78
2020/12/17 04:45:58;;;;;;;;;;;;;;;8.76;94.24;98929.47;5131957;27;19923;-79
2020/12/17 04:48:25;;;;;;;;;;;;;;;8.74;94.28;98932.97;5097083;27;19968;-79
2020/12/17 04:50:50;;;;;;;;;;;;;;;8.67;94.73;98932.28;5114847;27;19919;-80
2020/12/17 04:53:15;;;;;;;;;;;;;;;8.75;94.35;98929.50;5114860;27;19919;-80
2020/12/17 04:55:41;;;;;;;;;;;;;;;8.73;94.44;98936.41;5132232;27;19926;-79
2020/12/17 04:58:07;;;;;;;;;;;;;;;8.77;94.20;98931.16;5115064;27;19923;-78
2020/12/17 05:00:32;;;;;;;;;;;;;;;8.71;94.41;98933.03;5132580;27;19922;-80
2020/12/17 05:02:58;;;;;;;;;;;;;;;8.65;94.20;98928.91;5133420;27;19911;-80
2020/12/17 05:05:24;;;;;;;;;;;;;;;8.67;94.57;98923.75;5114688;27;19949;-80
2020/12/17 05:07:49;;;;;;;;;;;;;;;8.73;94.47;98929.53;5134166;27;19918;-80
2020/12/17 05:10:14;;;;;;;;;;;;;;;8.67;94.51;98932.28;5098063;27;20013;-80
2020/12/17 05:12:41;;;;;;;;;;;;;;;8.71;94.52;98933.91;5114227;27;21498;-80
2020/12/17 05:15:06;;;;;;;;;;;;;;;8.66;94.64;98940.84;5133575;27;19930;-80
2020/12/17 05:17:33;;;;;;;;;;;;;;;8.67;94.63;98952.00;5133424;27;19950;-80
2020/12/17 05:19:58;;;;;;;;;;;;;;;8.64;94.62;98950.31;5097509;27;19919;-79
2020/12/17 05:22:24;;;;;;;;;;;;;;;8.63;94.46;98945.25;5114934;27;19919;-80
2020/12/17 05:24:49;;;;;;;;;;;;;;;8.67;94.35;98957.13;5113542;27;19926;-80
2020/12/17 05:27:15;;;;;;;;;;;;;;;8.65;94.46;98962.28;5133626;27;20056;-79
2020/12/17 05:29:41;;;;;;;;;;;;;;;8.63;94.46;98965.78;5109722;27;19919;-80
2020/12/17 05:32:07;;;;;;;;;;;;;;;8.67;94.53;98963.09;5132991;27;19919;-78
2020/12/17 05:34:33;;;;;;;;;;;;;;;8.57;94.58;98975.28;5132065;27;19922;-80
2020/12/17 05:36:58;;;;;;;;;;;;;;;8.59;94.61;98975.25;5113842;27;19998;-79
2020/12/17 05:39:24;;;;;;;;;;;;;;;8.57;94.95;98977.03;5113717;27;19983;-79
2020/12/17 05:41:51;;;;;;;;;;;;;;;8.59;94.49;98980.41;5132806;27;19916;-79
2020/12/17 05:44:18;;;;;;;;;;;;;;;8.50;94.85;98981.47;5097180;27;21232;-79
2020/12/17 05:46:44;;;;;;;;;;;;;;;8.54;94.75;98987.38;5113805;27;19924;-80
2020/12/17 05:49:19;;;;;;;;;;;;;;;8.49;95.10;98978.94;5132483;27;19926;-80
2020/12/17 05:51:47;;;;;;;;;;;;;;;8.49;94.87;98990.03;5132650;27;19912;-80
2020/12/17 05:54:21;;;;;;;;;;;;;;;8.52;94.81;98984.84;5114038;27;19973;-80
2020/12/17 05:56:47;;;;;;;;;;;;;;;8.49;94.87;98994.34;5132096;27;19942;-80
2020/12/17 05:59:12;;;;;;;;;;;;;;;8.56;94.55;98998.44;5114497;27;19942;-80
2020/12/17 06:01:39;;;;;;;;;;;;;;;8.55;94.74;98999.31;5114894;27;19927;-80
2020/12/17 06:04:17;;;;;;;;;;;;;;;8.48;95.04;98998.59;5114528;27;19911;-80
2020/12/17 06:06:46;;;;;;;;;;;;;;;8.55;94.82;98995.03;5114464;27;19948;-79
2020/12/17 06:09:18;;;;;;;;;;;;;;;8.50;95.07;99001.16;5097946;27;20242;-80
2020/12/17 06:11:44;;;;;;;;;;;;;;;8.41;95.16;98991.94;5114473;27;19915;-80
2020/12/17 06:14:09;;;;;;;;;;;;;;;8.49;95.02;98989.22;5133178;27;19915;-80
2020/12/17 06:16:34;;;;;;;;;;;;;;;8.44;95.14;98980.75;5133091;27;20436;-79
2020/12/17 06:19:00;;;;;;;;;;;;;;;8.42;95.14;98982.53;5097310;27;19916;-79
2020/12/17 06:21:25;;;;;;;;;;;;;;;8.43;94.77;98984.22;5113817;27;19937;-79
2020/12/17 06:23:57;;;;;;;;;;;;;;;8.45;94.88;98970.47;5132437;27;20541;-81
2020/12/17 06:26:23;;;;;;;;;;;;;;;8.41;94.86;98985.97;5114286;28;19919;-80
2020/12/17 06:28:49;;;;;;;;;;;;;;;8.41;95.20;98983.41;5132835;27;19982;-79
2020/12/17 06:31:26;;;;;;;;;;;;;;;8.47;94.86;99001.22;5113778;27;19953;-80
2020/12/17 06:33:56;;;;;;;;;;;;;;;8.46;94.90;99002.97;5132739;27;19915;-79
2020/12/17 06:36:24;;;;;;;;;;;;;;;8.52;94.79;99005.38;5114412;27;20295;-78
2020/12/17 06:38:50;;;;;;;;;;;;;;;8.51;94.88;99013.97;5114655;28;20010;-80
2020/12/17 06:41:16;;;;;;;;;;;;;;;8.44;95.18;99011.56;5132367;27;20379;-80
2020/12/17 06:43:42;;;;;;;;;;;;;;;8.45;94.99;99005.56;5113906;28;19923;-80
2020/12/17 06:46:27;;;;;;;;;;;;;;;8.48;95.04;99010.59;5114143;28;19928;-81
2020/12/17 06:48:52;;;;;;;;;;;;;;;8.48;94.83;99008.03;5132267;28;19957;-80
2020/12/17 06:51:31;;;;;;;;;;;;;;;8.46;95.24;99005.53;5113526;28;19915;-80
2020/12/17 06:53:56;;;;;;;;;;;;;;;8.39;95.18;99006.50;5131968;28;19916;-80
2020/12/17 06:56:22;;;;;;;;;;;;;;;8.46;94.96;99009.78;5113379;28;19925;-80
2020/12/17 06:58:47;;;;;;;;;;;;;;;8.48;95.01;99010.59;5132486;28;19922;-79
2020/12/17 07:01:31;;;;;;;;;;;;;;;8.49;94.95;99009.75;5113863;28;19923;-80
2020/12/17 07:03:58;;;;;;;;;;;;;;;8.46;95.05;99010.66;5113403;28;19915;-81
2020/12/17 07:06:24;;;;;;;;;;;;;;;8.52;94.50;99017.34;5131646;28;19916;-81
2020/12/17 07:08:52;;;;;;;;;;;;;;;8.56;94.81;99021.56;5133172;27;19994;-79
2020/12/17 07:11:33;;;;;;;;;;;;;;;8.46;95.23;99020.94;5137236;27;20340;-80
2020/12/17 07:13:59;;;;;;;;;;;;;;;8.44;95.24;99021.81;5145561;27;19919;-80
2020/12/17 07:16:24;;;;;;;;;;;;;;;8.48;95.18;99018.31;5127796;27;19942;-79
2020/12/17 07:18:53;;;;;;;;;;;;;;;8.47;95.05;99022.59;5120071;27;19919;-79
2020/12/17 07:24:23;;;;;;;;;;;;;;;8.49;95.14;99035.41;5131865;27;19941;-80
2020/12/17 07:26:48;;;;;;;;;;;;;;;8.47;95.02;99032.03;5137200;27;19919;-80
2020/12/17 07:29:14;;;;;;;;;;;;;;;8.44;95.18;99032.09;5137405;27;19947;-81
2020/12/17 07:31:40;;;;;;;;;;;;;;;8.48;95.22;99051.66;5135961;27;19918;-80
2020/12/17 07:34:13;;;;;;;;;;;;;;;8.55;95.02;99045.50;5134070;27;19987;-79
2020/12/17 07:36:48;;;;;;;;;;;;;;;8.47;95.22;99053.41;5117539;27;19958;-80
2020/12/17 07:39:14;;;;;;;;;;;;;;;8.54;94.91;99054.09;5134837;27;20465;-80
2020/12/17 07:41:39;;;;;;;;;;;;;;;8.46;95.35;99059.44;5114625;27;19915;-80
2020/12/17 07:44:04;;;;;;;;;;;;;;;8.47;95.14;99065.41;5119614;27;19930;-80
2020/12/17 07:46:37;;;;;;;;;;;;;;;8.43;95.52;99062.03;5127783;27;19930;-80
2020/12/17 07:49:18;;;;;;;;;;;;;;;8.36;95.73;99071.56;5110701;27;20273;-79
2020/12/17 07:51:44;;;;;;;;;;;;;;;8.44;95.69;99074.00;5110337;27;20018;-81
2020/12/17 07:54:09;;;;;;;;;;;;;;;8.47;96.01;99068.81;5109406;27;20324;-79
2020/12/17 07:56:34;;;;;;;;;;;;;;;8.48;96.52;99092.72;5111750;27;19927;-79
2020/12/17 07:59:02;;;;;;;;;;;;;;;8.36;96.29;99107.50;5130206;27;20534;-79
2020/12/17 08:01:27;;;;;;;;;;;;;;;8.34;97.30;99119.50;5110450;27;19927;-80
2020/12/17 08:03:52;;;;;;;;;;;;;;;8.28;97.52;99113.66;5113166;27;19912;-81
2020/12/17 08:06:18;;;;;;;;;;;;;;;8.34;97.69;99111.81;5113871;27;19916;-81
2020/12/17 08:08:43;;;;;;;;;;;;;;;8.32;98.30;99110.16;5132536;27;19911;-82
2020/12/17 08:11:10;;;;;;;;;;;;;;;8.31;98.45;99106.75;5115264;27;19911;-81
2020/12/17 08:13:35;;;;;;;;;;;;;;;8.35;98.52;99108.38;5110893;27;20040;-80
2020/12/17 08:16:03;;;;;;;;;;;;;;;8.30;97.45;99117.91;5109163;27;19920;-81
2020/12/17 08:18:30;;;;;;;;;;;;;;;8.29;99.44;99123.88;5110820;27;19912;-80
2020/12/17 08:20:59;;;;;;;;;;;;;;;8.21;99.15;99136.06;5096637;27;19915;-81
2020/12/17 08:23:26;;;;;;;;;;;;;;;8.33;98.84;99138.34;5115364;27;19973;-80
2020/12/17 08:25:52;;;;;;;;;;;;;;;8.24;98.82;99141.09;5115266;27;20493;-81
2020/12/17 08:28:17;;;;;;;;;;;;;;;8.29;99.17;99131.59;5115201;27;19912;-82
2020/12/17 08:30:42;;;;;;;;;;;;;;;8.17;100.00;99142.13;5115614;27;19937;-82
2020/12/17 08:33:08;;;;;;;;;;;;;;;8.13;100.00;99140.47;5114710;27;19969;-80
2020/12/17 08:35:34;;;;;;;;;;;;;;;8.25;99.47;99158.19;5116430;27;19916;-82
2020/12/17 08:37:59;;;;;;;;;;;;;;;8.09;100.00;99156.78;5114760;27;20321;-82
2020/12/17 08:40:26;;;;;;;;;;;;;;;8.21;99.64;99161.72;5115304;27;19919;-82
2020/12/17 08:42:54;;;;;;;;;;;;;;;8.27;99.48;99161.56;5116053;27;19946;-82
2020/12/17 08:45:20;;;;;;;;;;;;;;;8.26;99.00;99162.44;5106060;28;19931;-82
2020/12/17 08:47:45;;;;;;;;;;;;;;;8.29;99.51;99172.63;5090532;28;20280;-81
2020/12/17 08:50:12;;;;;;;;;;;;;;;8.26;99.03;99172.72;5076529;28;19912;-81
2020/12/17 08:52:40;;;;;;;;;;;;;;;8.14;100.00;99183.19;5093951;28;19965;-81
2020/12/17 08:55:07;;;;;;;;;;;;;;;8.29;100.00;99192.34;5078029;28;19911;-79
2020/12/17 08:57:32;;;;;;;;;;;;;;;8.29;100.00;99193.16;5110641;28;19926;-79
2020/12/17 08:59:58;;;;;;;;;;;;;;;8.21;99.82;99200.19;5092413;28;19995;-80
2020/12/17 09:02:32;;;;;;;;;;;;;;;8.21;100.00;99200.19;5093880;28;19974;-79
2020/12/17 09:04:58;;;;;;;;;;;;;;;8.30;100.00;99200.00;5094796;28;19971;-81
2020/12/17 09:07:27;;;;;;;;;;;;;;;8.23;100.00;99203.53;5094198;28;19954;-81
2020/12/17 09:09:53;;;;;;;;;;;;;;;8.30;99.69;99217.97;5094252;28;20006;-79
2020/12/17 09:12:28;;;;;;;;;;;;;;;8.05;100.00;99220.16;5112115;28;20355;-79
2020/12/17 09:14:54;;;;;;;;;;;;;;;8.16;100.00;99227.63;5111229;28;19912;-80
2020/12/17 09:17:19;;;;;;;;;;;;;;;8.06;100.00;99228.69;5094850;28;20025;-79
2020/12/17 09:19:45;;;;;;;;;;;;;;;8.11;100.00;99229.44;5094077;28;20403;-80
2020/12/17 09:22:10;;;;;;;;;;;;;;;8.29;100.00;99233.38;5107063;28;19920;-80
2020/12/17 09:24:37;;;;;;;;;;;;;;;8.27;100.00;99235.13;5084188;28;20328;-80
2020/12/17 09:27:20;;;;;;;;;;;;;;;8.26;100.00;99242.00;5103695;28;19919;-79
2020/12/17 09:30:05;;;;;;;;;;;;;;;8.21;100.00;99240.38;5084678;28;19966;-79
2020/12/17 09:32:30;;;;;;;;;;;;;;;8.22;100.00;99240.34;5098788;28;19920;-79
2020/12/17 09:35:05;;;;;;;;;;;;;;;8.18;100.00;99246.41;5062851;28;19927;-79
2020/12/17 09:37:30;;;;;;;;;;;;;;;8.06;100.00;99262.03;5099733;28;20095;-80
2020/12/17 09:39:56;;;;;;;;;;;;;;;8.09;100.00;99267.94;5100353;28;20292;-79
2020/12/17 09:42:23;;;;;;;;;;;;;;;8.13;100.00;99258.47;5066239;28;20403;-78
2020/12/17 09:44:49;;;;;;;;;;;;;;;8.27;100.00;99268.47;5073861;27;19916;-78
2020/12/17 09:47:14;;;;;;;;;;;;;;;8.28;100.00;99272.72;5116796;27;19931;-79
2020/12/17 09:49:39;;;;;;;;;;;;;;;8.23;100.00;99275.38;5118925;27;19979;-79
2020/12/17 09:52:06;;;;;;;;;;;;;;;8.31;100.00;99278.66;5122009;27;19982;-79
2020/12/17 09:54:32;;;;;;;;;;;;;;;8.33;100.00;99281.22;5101695;27;19923;-78
2020/12/17 09:57:04;;;;;;;;;;;;;;;8.25;100.00;99278.75;5082786;27;19963;-78
2020/12/17 09:59:30;;;;;;;;;;;;;;;8.22;100.00;99291.66;5118746;27;20415;-79
2020/12/17 10:01:56;;;;;;;;;;;;;;;8.24;100.00;99292.47;5101093;27;19919;-78
2020/12/17 10:04:22;;;;;;;;;;;;;;;8.31;99.41;99294.06;5101717;27;19919;-78
2020/12/17 10:06:47;;;;;;;;;;;;;;;8.38;99.40;99285.38;5100615;27;19922;-79
2020/12/17 10:09:13;;;;;;;;;;;;;;;8.38;99.44;99298.19;5084602;27;19989;-79
2020/12/17 10:11:38;;;;;;;;;;;;;;;8.47;98.53;99294.66;5118348;27;20016;-79
2020/12/17 10:14:03;;;;;;;;;;;;;;;8.47;99.50;99292.09;5099654;27;19919;-79
2020/12/17 10:16:29;;;;;;;;;;;;;;;8.58;98.41;99289.31;5118978;27;19930;-79
2020/12/17 10:18:54;;;;;;;;;;;;;;;8.56;97.96;99293.63;5099904;28;19915;-79
2020/12/17 10:21:19;;;;;;;;;;;;;;;8.55;98.60;99294.50;5118551;27;19955;-79
2020/12/17 10:23:45;;;;;;;;;;;;;;;8.63;97.65;99300.34;5119633;27;19915;-79
2020/12/17 10:26:10;;;;;;;;;;;;;;;8.54;98.21;99295.38;5100410;27;20376;-79
2020/12/17 10:28:36;;;;;;;;;;;;;;;8.60;98.11;99300.41;5098025;27;20476;-80
2020/12/17 10:31:01;;;;;;;;;;;;;;;8.97;96.40;99302.25;5119606;27;19960;-79
2020/12/17 10:33:26;;;;;;;;;;;;;;;8.94;97.70;99310.00;5121538;27;20044;-79
2020/12/17 10:35:52;;;;;;;;;;;;;;;8.96;97.47;99308.25;5121409;27;19957;-79
2020/12/17 10:38:17;;;;;;;;;;;;;;;9.03;96.79;99309.81;5121366;27;19919;-79
2020/12/17 10:40:43;;;;;;;;;;;;;;;9.18;95.70;99324.91;5103571;27;19949;-80
2020/12/17 10:43:09;;;;;;;;;;;;;;;9.22;95.93;99325.69;5100870;28;19968;-79
2020/12/17 10:45:35;;;;;;;;;;;;;;;9.38;95.15;99318.50;5093762;28;19930;-78
2020/12/17 10:48:00;;;;;;;;;;;;;;;9.32;94.97;99321.19;5098528;28;19920;-79
2020/12/17 10:50:25;;;;;;;;;;;;;;;9.03;96.29;99322.66;5115294;22;19927;-79
2020/12/17 10:52:51;;;;;;;;;;;;;;;9.27;96.29;99317.91;5095776;28;19920;-79
2020/12/17 10:55:16;;;;;;;;;;;;;;;9.41;94.87;99311.56;5112572;28;19915;-79
2020/12/17 10:57:41;;;;;;;;;;;;;;;9.33;95.23;99317.78;5095404;28;19918;-79
2020/12/17 11:00:06;;;;;;;;;;;;;;;9.20;94.72;99315.44;5092658;28;19919;-79
2020/12/17 11:02:32;;;;;;;;;;;;;;;9.09;95.31;99319.97;5094179;28;19911;-79
2020/12/17 11:04:57;;;;;;;;;;;;;;;9.08;94.92;99323.44;5093545;28;19923;-79
2020/12/17 11:07:23;;;;;;;;;;;;;;;9.13;94.75;99324.16;5093039;28;19959;-79
2020/12/17 11:09:48;;;;;;;;;;;;;;;9.07;94.45;99326.00;5094535;28;20383;-79
2020/12/17 11:12:13;;;;;;;;;;;;;;;9.02;94.94;99326.13;5078037;28;20008;-79
2020/12/17 11:14:38;;;;;;;;;;;;;;;9.52;93.54;99319.03;5093609;28;19938;-79
2020/12/17 11:17:04;;;;;;;;;;;;;;;9.45;93.19;99325.19;5094026;28;19915;-79
2020/12/17 11:19:30;;;;;;;;;;;;;;;9.30;93.83;99328.09;5094885;28;19922;-78
2020/12/17 11:21:59;;;;;;;;;;;;;;;9.27;93.98;99334.16;5093816;28;19954;-79
2020/12/17 11:24:25;;;;;;;;;;;;;;;9.05;93.14;99336.31;5091736;28;19955;-79
2020/12/17 11:26:50;;;;;;;;;;;;;;;9.17;93.56;99332.66;5087724;28;19962;-79
2020/12/17 11:29:15;;;;;;;;;;;;;;;9.26;93.00;99331.59;5092453;28;19952;-79
2020/12/17 11:31:44;;;;;;;;;;;;;;;9.20;93.44;99337.72;5091850;28;19934;-79
2020/12/17 11:34:10;;;;;;;;;;;;;;;9.36;93.10;99335.69;5091530;28;20291;-78
2020/12/17 11:36:35;;;;;;;;;;;;;;;9.17;93.89;99337.81;5091346;28;20335;-79
2020/12/17 11:39:01;;;;;;;;;;;;;;;9.12;93.43;99330.19;5091761;28;19958;-78
2020/12/17 11:41:26;;;;;;;;;;;;;;;8.99;93.34;99326.19;5091950;28;19912;-78
2020/12/17 11:43:51;;;;;;;;;;;;;;;9.08;93.53;99333.69;5109470;28;19919;-79
2020/12/17 11:46:17;;;;;;;;;;;;;;;8.97;93.58;99336.47;5109348;28;19965;-78
2020/12/17 11:48:42;;;;;;;;;;;;;;;8.83;93.88;99340.22;5075026;28;19953;-78
2020/12/17 11:51:08;;;;;;;;;;;;;;;8.83;93.54;99335.91;5109234;28;19988;-78
2020/12/17 11:53:33;;;;;;;;;;;;;;;8.74;93.34;99342.06;5110654;28;19923;-78
2020/12/17 11:55:58;;;;;;;;;;;;;;;8.61;94.08;99348.31;5095053;28;19918;-78
2020/12/17 11:58:24;;;;;;;;;;;;;;;8.71;93.79;99347.28;5095416;28;19927;-78
2020/12/17 12:00:49;;;;;;;;;;;;;;;8.78;93.90;99345.41;5095181;28;20356;-79
2020/12/17 12:03:15;;;;;;;;;;;;;;;8.70;93.42;99347.28;5094930;28;19922;-79
2020/12/17 12:05:40;;;;;;;;;;;;;;;8.77;93.96;99342.00;5115190;28;19930;-79
2020/12/17 12:08:05;;;;;;;;;;;;;;;8.72;93.03;99345.53;5116389;28;19918;-78
2020/12/17 12:10:31;;;;;;;;;;;;;;;8.78;93.76;99346.28;5096673;28;19919;-78
2020/12/17 12:12:56;;;;;;;;;;;;;;;8.91;93.11;99346.03;5098155;28;19912;-79
2020/12/17 12:15:21;;;;;;;;;;;;;;;8.77;92.76;99349.69;5114474;28;20287;-79
2020/12/17 12:17:47;;;;;;;;;;;;;;;8.81;93.50;99359.94;5094414;28;19920;-78
2020/12/17 12:20:12;;;;;;;;;;;;;;;8.61;93.48;99353.44;5094106;28;20008;-78
2020/12/17 12:22:38;;;;;;;;;;;;;;;8.88;93.63;99361.50;5087937;28;19926;-78
2020/12/17 12:25:06;;;;;;;;;;;;;;;8.71;92.95;99360.13;5112700;28;19916;-79
2020/12/17 12:27:32;;;;;;;;;;;;;;;8.84;92.24;99359.88;5095277;28;19922;-78
2020/12/17 12:29:57;;;;;;;;;;;;;;;8.96;93.47;99364.75;5113970;28;19916;-79
2020/12/17 12:32:22;;;;;;;;;;;;;;;9.01;92.59;99357.81;5091105;28;21070;-78
2020/12/17 12:34:48;;;;;;;;;;;;;;;8.86;92.93;99358.13;5111622;28;19920;-78
2020/12/17 12:37:15;;;;;;;;;;;;;;;8.89;92.73;99358.88;5093800;28;19955;-78
2020/12/17 12:39:40;;;;;;;;;;;;;;;9.00;93.27;99353.56;5094577;28;19919;-78
2020/12/17 12:42:07;;;;;;;;;;;;;;;8.91;93.68;99353.72;5111935;28;19933;-78
2020/12/17 12:44:32;;;;;;;;;;;;;;;8.83;92.95;99364.16;5111666;28;20030;-77
2020/12/17 12:46:58;;;;;;;;;;;;;;;8.70;92.78;99363.53;5111723;28;19983;-78
2020/12/17 12:49:23;;;;;;;;;;;;;;;8.96;92.06;99364.75;5094718;28;19915;-77
2020/12/17 12:51:48;;;;;;;;;;;;;;;8.79;92.45;99368.50;5111797;28;19933;-78
2020/12/17 12:54:15;;;;;;;;;;;;;;;8.91;91.46;99364.84;5110510;28;20438;-78